createdAt,value
2022-08-17T00:00:18.309Z,46.00
2022-08-17T00:01:51.617Z,46.10
2022-08-17T00:02:57.563Z,46.20
2022-08-17T00:04:00.211Z,46.20
2022-08-17T00:05:03.256Z,46.30
2022-08-17T00:06:08.462Z,46.20
2022-08-17T00:07:10.949Z,46.20
2022-08-17T00:08:14.697Z,46.30
2022-08-17T00:09:18.994Z,46.30
2022-08-17T00:10:21.699Z,46.20
2022-08-17T00:11:31.699Z,46.30
2022-08-17T00:12:42.578Z,46.30
2022-08-17T00:13:50.881Z,46.30
2022-08-17T00:14:58.197Z,46.30
2022-08-17T00:16:11.977Z,46.30
2022-08-17T00:17:14.196Z,46.30
2022-08-17T00:19:01.551Z,46.40
2022-08-17T00:19:38.999Z,46.40
2022-08-17T00:20:43.071Z,47.00
2022-08-17T00:22:32.534Z,46.50
2022-08-17T00:23:10.499Z,46.50
2022-08-17T00:24:13.002Z,46.50
2022-08-17T00:25:19.598Z,46.50
2022-08-17T00:26:37.497Z,46.50
2022-08-17T00:27:45.186Z,46.50
2022-08-17T00:28:47.673Z,46.50
2022-08-17T00:29:49.939Z,46.50
2022-08-17T00:30:53.350Z,46.40
2022-08-17T00:31:56.026Z,46.50
2022-08-17T00:33:11.876Z,46.50
2022-08-17T00:34:20.853Z,46.60
2022-08-17T00:35:23.685Z,46.50
2022-08-17T00:36:26.028Z,46.50
2022-08-17T00:37:28.654Z,46.50
2022-08-17T00:38:31.013Z,46.50
2022-08-17T00:39:33.302Z,46.50
2022-08-17T00:40:40.680Z,46.50
2022-08-17T00:41:47.641Z,46.60
2022-08-17T00:42:50.074Z,46.60
2022-08-17T00:43:54.067Z,46.60
2022-08-17T00:44:56.459Z,46.60
2022-08-17T00:45:59.345Z,46.60
2022-08-17T00:47:01.603Z,46.60
2022-08-17T00:48:03.828Z,46.60
2022-08-17T00:49:15.058Z,46.60
2022-08-17T00:50:18.632Z,46.60
2022-08-17T00:51:33.268Z,46.50
2022-08-17T00:52:37.510Z,47.00
2022-08-17T00:53:42.607Z,46.60
2022-08-17T00:54:46.514Z,46.70
2022-08-17T00:55:48.823Z,46.70
2022-08-17T00:56:53.657Z,46.70
2022-08-17T00:57:58.563Z,46.70
2022-08-17T00:59:01.172Z,46.70
2022-08-17T01:00:11.756Z,46.80
2022-08-17T01:01:21.842Z,46.80
2022-08-17T01:02:24.660Z,46.80
2022-08-17T01:03:27.111Z,46.90
2022-08-17T01:04:29.950Z,46.90
2022-08-17T01:05:33.137Z,46.90
2022-08-17T01:06:35.615Z,46.90
2022-08-17T01:07:38.115Z,46.90
2022-08-17T01:08:40.575Z,46.90
2022-08-17T01:09:44.013Z,46.90
2022-08-17T01:11:00.788Z,46.90
2022-08-17T01:12:08.501Z,46.90
2022-08-17T01:13:11.234Z,46.90
2022-08-17T01:14:14.167Z,46.90
2022-08-17T01:15:16.457Z,47.00
2022-08-17T01:16:21.495Z,46.90
2022-08-17T01:17:23.799Z,46.90
2022-08-17T01:18:26.364Z,47.00
2022-08-17T01:19:34.184Z,46.90
2022-08-17T01:20:47.910Z,46.90
2022-08-17T01:21:55.009Z,46.90
2022-08-17T01:22:57.318Z,46.90
2022-08-17T01:24:00.090Z,47.00
2022-08-17T01:25:04.625Z,47.00
2022-08-17T01:26:06.917Z,47.00
2022-08-17T01:27:10.470Z,47.00
2022-08-17T01:28:12.997Z,47.00
2022-08-17T01:29:36.290Z,47.00
2022-08-17T01:30:57.777Z,46.90
2022-08-17T01:32:03.620Z,46.90
2022-08-17T01:33:05.866Z,47.00
2022-08-17T01:34:09.720Z,46.90
2022-08-17T01:35:11.948Z,47.00
2022-08-17T01:36:14.163Z,46.90
2022-08-17T01:37:17.009Z,46.90
2022-08-17T01:38:19.695Z,46.90
2022-08-17T01:39:55.709Z,47.00
2022-08-17T01:41:01.826Z,47.00
2022-08-17T01:42:07.074Z,47.00
2022-08-17T01:43:15.741Z,47.00
2022-08-17T01:44:18.063Z,47.10
2022-08-17T01:45:23.097Z,47.10
2022-08-17T01:46:27.216Z,47.10
2022-08-17T01:47:29.858Z,47.10
2022-08-17T01:48:34.652Z,47.10
2022-08-17T01:49:37.013Z,47.20
2022-08-17T01:50:40.720Z,47.10
2022-08-17T01:51:42.896Z,47.20
2022-08-17T01:52:45.836Z,47.20
2022-08-17T01:53:49.530Z,47.40
2022-08-17T01:54:52.422Z,47.40
2022-08-17T01:56:08.615Z,47.40
2022-08-17T01:57:10.940Z,47.30
2022-08-17T01:58:13.203Z,47.40
2022-08-17T01:59:16.238Z,47.30
2022-08-17T02:00:18.490Z,47.50
2022-08-17T02:01:22.088Z,47.50
2022-08-17T02:02:30.397Z,47.40
2022-08-17T02:03:34.477Z,47.40
2022-08-17T02:04:37.157Z,47.40
2022-08-17T02:05:39.832Z,47.40
2022-08-17T02:06:52.511Z,47.30
2022-08-17T02:08:00.325Z,47.30
2022-08-17T02:09:03.993Z,47.30
2022-08-17T02:10:19.960Z,47.30
2022-08-17T02:11:22.853Z,47.40
2022-08-17T02:12:39.224Z,47.30
2022-08-17T02:13:43.053Z,47.20
2022-08-17T02:14:45.284Z,47.20
2022-08-17T02:15:47.613Z,47.10
2022-08-17T02:16:49.961Z,47.10
2022-08-17T02:17:54.730Z,47.10
2022-08-17T02:18:57.213Z,47.10
2022-08-17T02:19:59.446Z,47.10
2022-08-17T02:21:01.756Z,47.10
2022-08-17T02:22:04.049Z,47.10
2022-08-17T02:23:08.798Z,47.60
2022-08-17T02:24:12.816Z,47.10
2022-08-17T02:25:16.265Z,47.10
2022-08-17T02:26:25.564Z,47.10
2022-08-17T02:27:28.635Z,47.10
2022-08-17T02:28:30.917Z,47.10
2022-08-17T02:29:33.219Z,47.10
2022-08-17T02:31:02.001Z,47.20
2022-08-17T02:31:58.547Z,47.10
2022-08-17T02:33:04.288Z,47.20
2022-08-17T02:34:11.664Z,47.20
2022-08-17T02:35:14.439Z,47.30
2022-08-17T02:36:26.818Z,47.30
2022-08-17T02:37:30.211Z,47.50
2022-08-17T02:38:32.514Z,47.50
2022-08-17T02:39:34.780Z,47.60
2022-08-17T02:40:37.330Z,47.60
2022-08-17T02:41:39.815Z,47.60
2022-08-17T02:42:43.144Z,47.70
2022-08-17T02:43:45.460Z,47.70
2022-08-17T02:44:47.932Z,47.60
2022-08-17T02:45:50.262Z,47.60
2022-08-17T02:46:53.288Z,47.60
2022-08-17T02:47:55.520Z,47.50
2022-08-17T02:48:58.090Z,47.50
2022-08-17T02:50:00.358Z,47.40
2022-08-17T02:51:02.620Z,47.40
2022-08-17T02:52:07.435Z,47.40
2022-08-17T02:53:09.609Z,47.50
2022-08-17T02:54:40.717Z,47.50
2022-08-17T02:55:35.153Z,47.60
2022-08-17T02:56:37.355Z,47.60
2022-08-17T02:57:39.530Z,47.70
2022-08-17T02:58:41.817Z,47.70
2022-08-17T02:59:48.826Z,47.80
2022-08-17T03:00:51.415Z,48.30
2022-08-17T03:01:53.854Z,47.90
2022-08-17T03:02:56.773Z,47.90
2022-08-17T03:03:58.981Z,47.90
2022-08-17T03:05:01.458Z,47.90
2022-08-17T03:06:04.482Z,47.90
2022-08-17T03:07:06.712Z,47.80
2022-08-17T03:08:13.186Z,47.90
2022-08-17T03:09:16.782Z,47.90
2022-08-17T03:10:19.862Z,47.90
2022-08-17T03:11:22.081Z,47.90
2022-08-17T03:12:24.267Z,47.90
2022-08-17T03:13:27.519Z,47.90
2022-08-17T03:14:31.477Z,47.90
2022-08-17T03:15:34.087Z,47.90
2022-08-17T03:16:37.002Z,47.90
2022-08-17T03:17:39.478Z,47.80
2022-08-17T03:18:41.706Z,47.90
2022-08-17T03:19:44.414Z,47.90
2022-08-17T03:20:46.655Z,48.20
2022-08-17T03:21:55.228Z,48.60
2022-08-17T03:23:01.976Z,48.60
2022-08-17T03:24:08.921Z,48.50
2022-08-17T03:25:14.093Z,48.40
2022-08-17T03:26:21.736Z,48.40
2022-08-17T03:27:23.908Z,48.40
2022-08-17T03:28:28.165Z,48.30
2022-08-17T03:29:30.349Z,48.30
2022-08-17T03:30:33.199Z,48.20
2022-08-17T03:31:37.009Z,48.20
2022-08-17T03:32:47.189Z,48.20
2022-08-17T03:33:49.546Z,48.10
2022-08-17T03:34:51.763Z,48.20
2022-08-17T03:35:54.095Z,48.50
2022-08-17T03:36:56.333Z,48.90
2022-08-17T03:38:00.298Z,49.30
2022-08-17T03:39:03.044Z,49.30
2022-08-17T03:40:06.093Z,49.40
2022-08-17T03:41:08.462Z,49.40
2022-08-17T03:42:31.859Z,49.30
2022-08-17T03:43:35.208Z,49.40
2022-08-17T03:44:37.432Z,49.30
2022-08-17T03:45:58.072Z,49.40
2022-08-17T03:47:18.787Z,49.40
2022-08-17T03:48:40.069Z,49.40
2022-08-17T03:50:00.813Z,49.90
2022-08-17T03:51:21.413Z,50.00
2022-08-17T03:52:42.235Z,50.40
2022-08-17T03:54:20.944Z,50.90
2022-08-17T03:55:41.695Z,50.80
2022-08-17T03:56:45.441Z,50.40
2022-08-17T03:57:48.874Z,50.20
2022-08-17T03:58:51.083Z,50.10
2022-08-17T03:59:54.197Z,49.90
2022-08-17T04:00:56.563Z,49.70
2022-08-17T04:02:01.433Z,49.60
2022-08-17T04:03:03.949Z,49.50
2022-08-17T04:04:06.503Z,49.50
2022-08-17T04:05:09.412Z,49.30
2022-08-17T04:06:11.626Z,49.30
2022-08-17T04:07:13.854Z,49.20
2022-08-17T04:08:16.081Z,49.00
2022-08-17T04:09:18.388Z,48.90
2022-08-17T04:10:24.751Z,48.90
2022-08-17T04:11:28.659Z,48.90
2022-08-17T04:12:42.132Z,48.80
2022-08-17T04:13:44.359Z,48.90
2022-08-17T04:14:53.029Z,48.90
2022-08-17T04:15:59.182Z,48.80
2022-08-17T04:17:01.508Z,48.80
2022-08-17T04:18:03.965Z,48.80
2022-08-17T04:19:06.358Z,48.80
2022-08-17T04:20:08.853Z,48.80
2022-08-17T04:21:11.350Z,48.90
2022-08-17T04:22:30.666Z,48.90
2022-08-17T04:23:36.662Z,48.90
2022-08-17T04:24:38.943Z,49.20
2022-08-17T04:25:49.633Z,49.20
2022-08-17T04:26:54.393Z,49.10
2022-08-17T04:27:57.375Z,49.10
2022-08-17T04:28:59.631Z,49.10
2022-08-17T04:30:02.359Z,49.10
2022-08-17T04:31:04.668Z,49.10
2022-08-17T04:32:06.903Z,49.00
2022-08-17T04:33:11.059Z,49.00
2022-08-17T04:34:13.470Z,49.00
2022-08-17T04:35:20.374Z,49.10
2022-08-17T04:36:22.619Z,49.10
2022-08-17T04:37:24.849Z,49.10
2022-08-17T04:38:32.682Z,49.10
2022-08-17T04:39:34.943Z,49.10
2022-08-17T04:40:55.649Z,49.10
2022-08-17T04:42:06.829Z,49.20
2022-08-17T04:43:10.800Z,49.10
2022-08-17T04:44:13.045Z,49.10
2022-08-17T04:45:32.851Z,49.10
2022-08-17T04:46:35.693Z,49.20
2022-08-17T04:47:37.986Z,49.20
2022-08-17T04:48:50.695Z,49.20
2022-08-17T04:49:53.474Z,49.30
2022-08-17T04:50:55.732Z,49.30
2022-08-17T04:52:01.212Z,49.30
2022-08-17T04:53:06.688Z,49.40
2022-08-17T04:54:10.568Z,49.30
2022-08-17T04:55:15.868Z,49.40
2022-08-17T04:56:19.128Z,49.40
2022-08-17T04:57:21.423Z,49.50
2022-08-17T04:58:23.710Z,49.50
2022-08-17T04:59:26.058Z,49.50
2022-08-17T05:00:28.387Z,49.50
2022-08-17T05:01:32.209Z,49.50
2022-08-17T05:02:50.080Z,49.40
2022-08-17T05:03:58.957Z,49.50
2022-08-17T05:05:01.203Z,49.40
2022-08-17T05:06:03.599Z,49.40
2022-08-17T05:07:05.851Z,49.30
2022-08-17T05:08:08.080Z,49.20
2022-08-17T05:09:10.397Z,49.20
2022-08-17T05:10:12.626Z,49.30
2022-08-17T05:11:14.894Z,49.20
2022-08-17T05:12:17.150Z,49.20
2022-08-17T05:13:21.420Z,49.10
2022-08-17T05:14:32.914Z,49.20
2022-08-17T05:15:37.236Z,49.40
2022-08-17T05:16:49.251Z,49.40
2022-08-17T05:17:51.487Z,49.40
2022-08-17T05:18:53.798Z,49.30
2022-08-17T05:19:56.013Z,49.40
2022-08-17T05:20:58.182Z,49.40
2022-08-17T05:22:03.991Z,49.40
2022-08-17T05:23:07.838Z,49.20
2022-08-17T05:24:38.412Z,49.40
2022-08-17T05:25:36.179Z,49.40
2022-08-17T05:26:39.684Z,49.40
2022-08-17T05:27:44.813Z,49.30
2022-08-17T05:28:48.588Z,49.20
2022-08-17T05:29:52.592Z,49.30
2022-08-17T05:30:56.332Z,49.30
2022-08-17T05:31:58.537Z,49.30
2022-08-17T05:33:02.651Z,49.20
2022-08-17T05:34:05.084Z,49.20
2022-08-17T05:35:07.593Z,49.20
2022-08-17T05:36:10.991Z,49.20
2022-08-17T05:37:33.311Z,49.20
2022-08-17T05:38:35.759Z,49.40
2022-08-17T05:39:37.992Z,49.60
2022-08-17T05:40:40.916Z,49.50
2022-08-17T05:42:08.031Z,49.60
2022-08-17T05:43:29.513Z,49.70
2022-08-17T05:44:31.884Z,49.50
2022-08-17T05:45:55.657Z,49.50
2022-08-17T05:46:59.315Z,49.50
2022-08-17T05:48:01.639Z,49.50
2022-08-17T05:49:05.614Z,49.70
2022-08-17T05:50:09.910Z,49.60
2022-08-17T05:51:24.697Z,49.60
2022-08-17T05:52:35.438Z,49.70
2022-08-17T05:53:56.377Z,49.80
2022-08-17T05:55:16.445Z,49.90
2022-08-17T05:56:30.191Z,49.80
2022-08-17T05:57:52.944Z,50.10
2022-08-17T05:59:03.162Z,50.40
2022-08-17T06:00:10.007Z,50.50
2022-08-17T06:01:31.817Z,50.50
2022-08-17T06:02:54.889Z,50.30
2022-08-17T06:04:09.476Z,50.30
2022-08-17T06:05:37.785Z,50.20
2022-08-17T06:06:41.590Z,50.20
2022-08-17T06:07:46.913Z,50.30
2022-08-17T06:08:51.788Z,50.20
2022-08-17T06:10:00.012Z,50.10
2022-08-17T06:11:02.373Z,50.10
2022-08-17T06:12:20.214Z,50.00
2022-08-17T06:13:28.552Z,50.10
2022-08-17T06:14:36.823Z,50.10
2022-08-17T06:15:55.327Z,50.00
2022-08-17T06:17:06.216Z,49.90
2022-08-17T06:18:09.720Z,50.10
2022-08-17T06:19:27.632Z,50.00
2022-08-17T06:20:32.651Z,50.30
2022-08-17T06:21:39.144Z,50.40
2022-08-17T06:22:45.787Z,50.30
2022-08-17T06:23:50.632Z,50.20
2022-08-17T06:25:02.780Z,50.30
2022-08-17T06:26:11.567Z,50.20
2022-08-17T06:27:18.845Z,50.30
2022-08-17T06:28:29.974Z,50.70
2022-08-17T06:29:35.301Z,51.00
2022-08-17T06:31:00.510Z,50.80
2022-08-17T06:32:05.421Z,50.80
2022-08-17T06:33:09.904Z,50.30
2022-08-17T06:34:12.652Z,50.30
2022-08-17T06:35:31.352Z,50.20
2022-08-17T06:37:12.923Z,50.20
2022-08-17T06:38:38.454Z,49.70
2022-08-17T06:40:00.275Z,49.40
2022-08-17T06:41:15.494Z,49.20
2022-08-17T06:42:55.018Z,49.10
2022-08-17T06:44:01.853Z,49.10
2022-08-17T06:45:04.270Z,49.10
2022-08-17T06:46:10.601Z,48.60
2022-08-17T06:47:28.537Z,48.50
2022-08-17T06:48:31.827Z,48.40
2022-08-17T06:49:50.576Z,48.80
2022-08-17T06:51:02.887Z,48.60
2022-08-17T06:52:45.471Z,48.30
2022-08-17T06:54:00.725Z,48.80
2022-08-17T06:55:06.210Z,48.50
2022-08-17T06:56:09.973Z,48.30
2022-08-17T06:57:14.942Z,48.60
2022-08-17T06:58:21.158Z,48.60
2022-08-17T06:59:26.861Z,48.10
2022-08-17T07:00:53.142Z,48.20
2022-08-17T07:02:03.176Z,48.00
2022-08-17T07:03:09.728Z,48.40
2022-08-17T07:04:19.116Z,48.40
2022-08-17T07:05:24.415Z,48.40
2022-08-17T07:06:29.550Z,48.50
2022-08-17T07:07:52.745Z,48.50
2022-08-17T07:08:58.999Z,48.10
2022-08-17T07:10:02.874Z,48.60
2022-08-17T07:11:08.743Z,48.70
2022-08-17T07:12:24.748Z,48.40
2022-08-17T07:13:33.719Z,48.20
2022-08-17T07:14:54.111Z,48.20
2022-08-17T07:16:04.916Z,47.70
2022-08-17T07:17:13.266Z,48.00
2022-08-17T07:18:16.402Z,47.60
2022-08-17T07:19:22.544Z,48.20
2022-08-17T07:20:25.268Z,48.40
2022-08-17T07:21:33.389Z,48.30
2022-08-17T07:22:59.407Z,48.20
2022-08-17T07:24:03.405Z,48.20
2022-08-17T07:25:07.686Z,48.20
2022-08-17T07:26:10.494Z,48.30
2022-08-17T07:27:20.499Z,48.10
2022-08-17T07:28:23.169Z,48.20
2022-08-17T07:29:25.862Z,48.70
2022-08-17T07:30:31.471Z,48.30
2022-08-17T07:31:47.430Z,48.20
2022-08-17T07:32:53.489Z,48.20
2022-08-17T07:34:14.756Z,48.60
2022-08-17T07:35:21.367Z,48.20
2022-08-17T07:36:29.825Z,48.10
2022-08-17T07:37:34.326Z,48.00
2022-08-17T07:38:54.210Z,47.80
2022-08-17T07:40:13.164Z,47.50
2022-08-17T07:41:20.391Z,47.70
2022-08-17T07:42:23.789Z,48.30
2022-08-17T07:43:29.554Z,48.40
2022-08-17T07:44:46.037Z,47.60
2022-08-17T07:46:27.565Z,47.20
2022-08-17T07:47:48.882Z,47.20
2022-08-17T07:48:53.806Z,46.80
2022-08-17T07:49:56.288Z,47.40
2022-08-17T07:51:00.188Z,48.20
2022-08-17T07:52:48.292Z,48.50
2022-08-17T07:53:32.274Z,48.40
2022-08-17T07:54:42.237Z,48.50
2022-08-17T07:55:45.574Z,48.30
2022-08-17T07:56:50.314Z,47.90
2022-08-17T07:57:57.671Z,47.70
2022-08-17T07:59:23.616Z,47.80
2022-08-17T08:00:32.175Z,47.40
2022-08-17T08:01:39.384Z,47.00
2022-08-17T08:02:45.397Z,47.40
2022-08-17T08:03:51.054Z,47.30
2022-08-17T08:05:10.038Z,47.30
2022-08-17T08:06:23.536Z,47.40
2022-08-17T08:07:29.153Z,47.40
2022-08-17T08:08:42.410Z,47.50
2022-08-17T08:09:47.098Z,46.90
2022-08-17T08:10:58.678Z,47.50
2022-08-17T08:12:21.835Z,47.70
2022-08-17T08:13:28.849Z,48.20
2022-08-17T08:14:38.244Z,47.90
2022-08-17T08:15:45.244Z,48.00
2022-08-17T08:17:00.421Z,47.60
2022-08-17T08:18:06.821Z,47.90
2022-08-17T08:19:13.112Z,47.90
2022-08-17T08:20:47.656Z,47.80
2022-08-17T08:21:55.317Z,47.90
2022-08-17T08:23:03.802Z,47.80
2022-08-17T08:24:15.762Z,47.70
2022-08-17T08:25:22.988Z,47.80
2022-08-17T08:26:31.048Z,47.90
2022-08-17T08:27:36.563Z,47.70
2022-08-17T08:28:54.643Z,47.90
2022-08-17T08:29:57.435Z,47.70
2022-08-17T08:31:28.907Z,47.90
2022-08-17T08:32:38.033Z,47.90
2022-08-17T08:33:58.238Z,47.60
2022-08-17T08:35:17.189Z,47.80
2022-08-17T08:37:12.659Z,47.60
2022-08-17T08:38:07.784Z,47.70
2022-08-17T08:39:16.298Z,47.80
2022-08-17T08:40:38.894Z,47.60
2022-08-17T08:41:51.907Z,47.50
2022-08-17T08:43:06.803Z,47.80
2022-08-17T08:45:00.689Z,47.90
2022-08-17T08:45:59.089Z,47.50
2022-08-17T08:47:07.973Z,47.50
2022-08-17T08:48:23.099Z,47.40
2022-08-17T08:50:03.859Z,47.30
2022-08-17T08:51:33.286Z,47.70
2022-08-17T08:52:45.589Z,47.80
2022-08-17T08:53:54.226Z,47.40
2022-08-17T08:55:03.801Z,47.50
2022-08-17T08:56:11.045Z,47.70
2022-08-17T08:57:28.046Z,47.90
2022-08-17T08:58:44.284Z,47.90
2022-08-17T08:59:58.364Z,47.90
2022-08-17T09:01:03.846Z,47.80
2022-08-17T09:02:24.799Z,47.90
2022-08-17T09:03:52.177Z,47.90
2022-08-17T09:05:20.923Z,47.80
2022-08-17T09:06:39.158Z,47.80
2022-08-17T09:07:51.307Z,48.00
2022-08-17T09:09:02.839Z,48.10
2022-08-17T09:10:25.492Z,48.20
2022-08-17T09:12:01.382Z,48.30
2022-08-17T09:13:11.881Z,48.50
2022-08-17T09:14:28.502Z,49.00
2022-08-17T09:15:34.865Z,49.10
2022-08-17T09:16:42.971Z,49.30
2022-08-17T09:18:59.253Z,49.10
2022-08-17T09:19:35.033Z,49.40
2022-08-17T09:20:49.593Z,49.30
2022-08-17T09:22:14.022Z,49.10
2022-08-17T09:23:25.928Z,49.60
2022-08-17T09:24:33.342Z,49.30
2022-08-17T09:25:44.402Z,49.40
2022-08-17T09:26:54.818Z,49.60
2022-08-17T09:28:00.644Z,49.30
2022-08-17T09:29:07.073Z,49.20
2022-08-17T09:30:11.501Z,49.40
2022-08-17T09:31:20.483Z,49.50
2022-08-17T09:32:44.140Z,49.60
2022-08-17T09:33:48.293Z,49.70
2022-08-17T09:34:55.167Z,49.60
2022-08-17T09:35:58.153Z,49.40
2022-08-17T09:37:27.496Z,49.40
2022-08-17T09:38:39.684Z,49.40
2022-08-17T09:39:46.033Z,49.50
2022-08-17T09:40:55.762Z,49.40
2022-08-17T09:42:07.881Z,49.30
2022-08-17T09:43:17.099Z,49.10
2022-08-17T09:44:28.999Z,49.00
2022-08-17T09:45:53.068Z,49.00
2022-08-17T09:47:01.305Z,48.80
2022-08-17T09:48:05.164Z,48.20
2022-08-17T09:49:15.316Z,48.50
2022-08-17T09:51:04.074Z,48.60
2022-08-17T09:51:57.402Z,48.80
2022-08-17T09:52:59.871Z,48.90
2022-08-17T09:54:34.781Z,48.90
2022-08-17T09:55:41.678Z,48.80
2022-08-17T09:57:11.523Z,49.10
2022-08-17T09:58:50.940Z,49.00
2022-08-17T10:00:13.172Z,48.70
2022-08-17T10:01:17.553Z,48.70
2022-08-17T10:02:30.184Z,48.80
2022-08-17T10:03:49.220Z,48.90
2022-08-17T10:05:04.994Z,49.00
2022-08-17T10:06:22.225Z,49.30
2022-08-17T10:07:34.143Z,49.50
2022-08-17T10:08:42.360Z,49.60
2022-08-17T10:09:55.909Z,49.50
2022-08-17T10:11:17.511Z,49.30
2022-08-17T10:12:40.257Z,49.20
2022-08-17T10:14:36.848Z,49.20
2022-08-17T10:15:55.460Z,49.10
2022-08-17T10:17:04.429Z,49.30
2022-08-17T10:18:22.391Z,49.40
2022-08-17T10:19:44.134Z,49.70
2022-08-17T10:21:22.001Z,49.70
2022-08-17T10:22:56.422Z,50.00
2022-08-17T10:24:30.415Z,50.00
2022-08-17T10:25:55.554Z,50.10
2022-08-17T10:27:00.126Z,50.30
2022-08-17T10:28:07.410Z,50.30
2022-08-17T10:29:16.773Z,50.80
2022-08-17T10:30:20.701Z,50.50
2022-08-17T10:31:40.768Z,50.30
2022-08-17T10:32:56.807Z,50.50
2022-08-17T10:34:01.788Z,50.30
2022-08-17T10:35:04.156Z,51.20
2022-08-17T10:36:19.889Z,51.20
2022-08-17T10:37:32.431Z,50.90
2022-08-17T10:38:48.076Z,51.50
2022-08-17T10:39:59.173Z,51.60
2022-08-17T10:41:06.065Z,52.00
2022-08-17T10:42:30.329Z,51.50
2022-08-17T10:43:35.504Z,52.50
2022-08-17T10:44:45.691Z,52.30
2022-08-17T10:46:09.509Z,52.40
2022-08-17T10:47:26.960Z,52.10
2022-08-17T10:48:29.620Z,52.60
2022-08-17T10:49:33.957Z,52.30
2022-08-17T10:50:54.696Z,52.60
2022-08-17T10:51:58.035Z,52.70
2022-08-17T10:53:00.320Z,52.20
2022-08-17T10:54:02.767Z,52.30
2022-08-17T10:55:08.890Z,52.10
2022-08-17T10:56:14.008Z,52.40
2022-08-17T10:57:34.422Z,52.30
2022-08-17T10:58:47.661Z,52.00
2022-08-17T10:59:51.213Z,52.30
2022-08-17T11:00:53.600Z,51.90
2022-08-17T11:02:04.051Z,51.80
2022-08-17T11:03:24.889Z,52.10
2022-08-17T11:04:35.769Z,52.00
2022-08-17T11:05:42.951Z,52.00
2022-08-17T11:06:49.039Z,51.90
2022-08-17T11:07:59.762Z,51.50
2022-08-17T11:09:21.219Z,51.90
2022-08-17T11:10:42.271Z,51.30
2022-08-17T11:11:47.532Z,51.20
2022-08-17T11:13:08.901Z,51.00
2022-08-17T11:14:29.705Z,51.10
2022-08-17T11:15:38.068Z,50.70
2022-08-17T11:16:48.021Z,51.00
2022-08-17T11:17:58.177Z,50.90
2022-08-17T11:19:18.421Z,50.90
2022-08-17T11:20:23.815Z,50.70
2022-08-17T11:21:28.898Z,50.80
2022-08-17T11:22:49.474Z,50.60
2022-08-17T11:24:11.665Z,50.30
2022-08-17T11:25:18.631Z,50.30
2022-08-17T11:26:46.641Z,50.00
2022-08-17T11:27:53.626Z,50.70
2022-08-17T11:29:16.322Z,50.20
2022-08-17T11:30:38.359Z,50.20
2022-08-17T11:31:43.547Z,50.00
2022-08-17T11:32:48.695Z,49.90
2022-08-17T11:33:58.787Z,50.00
2022-08-17T11:35:14.032Z,49.80
2022-08-17T11:36:26.515Z,49.70
2022-08-17T11:37:40.770Z,49.50
2022-08-17T11:38:48.089Z,49.30
2022-08-17T11:40:06.470Z,49.10
2022-08-17T11:41:18.898Z,49.10
2022-08-17T11:42:25.525Z,49.00
2022-08-17T11:43:46.359Z,49.10
2022-08-17T11:44:53.522Z,49.00
2022-08-17T11:45:55.878Z,48.90
2022-08-17T11:48:02.491Z,49.00
2022-08-17T11:49:34.695Z,49.10
2022-08-17T11:51:17.345Z,48.80
2022-08-17T11:52:36.609Z,48.70
2022-08-17T11:53:40.964Z,48.40
2022-08-17T11:54:46.262Z,48.40
2022-08-17T11:55:52.176Z,48.40
2022-08-17T11:56:55.179Z,48.60
2022-08-17T11:58:01.939Z,48.30
2022-08-17T11:59:25.145Z,48.30
2022-08-17T12:00:46.491Z,48.00
2022-08-17T12:01:56.003Z,48.20
2022-08-17T12:03:22.159Z,48.20
2022-08-17T12:04:29.345Z,48.10
2022-08-17T12:05:32.333Z,48.10
2022-08-17T12:06:41.349Z,47.90
2022-08-17T12:07:46.512Z,47.70
2022-08-17T12:08:55.148Z,47.90
2022-08-17T12:09:59.217Z,47.60
2022-08-17T12:11:06.995Z,47.60
2022-08-17T12:12:14.243Z,47.30
2022-08-17T12:13:18.193Z,47.70
2022-08-17T12:14:35.502Z,47.90
2022-08-17T12:15:49.664Z,47.50
2022-08-17T12:17:25.879Z,47.70
2022-08-17T12:18:48.326Z,47.50
2022-08-17T12:19:52.346Z,47.40
2022-08-17T12:21:05.349Z,47.20
2022-08-17T12:22:07.809Z,47.20
2022-08-17T12:23:10.183Z,47.00
2022-08-17T12:24:31.358Z,47.00
2022-08-17T12:30:25.773Z,47.00
2022-08-17T12:31:31.014Z,46.80
2022-08-17T12:32:34.657Z,46.90
2022-08-17T12:33:37.401Z,46.90
2022-08-17T12:34:40.733Z,46.70
2022-08-17T12:35:43.368Z,46.80
2022-08-17T12:36:47.175Z,46.80
2022-08-17T12:37:50.450Z,46.90
2022-08-17T12:39:14.302Z,46.80
2022-08-17T12:40:22.713Z,46.40
2022-08-17T12:41:44.260Z,46.70
2022-08-17T12:42:57.273Z,46.70
2022-08-17T12:44:12.119Z,46.70
2022-08-17T12:45:22.415Z,46.80
2022-08-17T12:46:24.671Z,46.60
2022-08-17T12:47:29.943Z,46.50
2022-08-17T12:48:36.190Z,46.50
2022-08-17T12:49:39.625Z,46.20
2022-08-17T12:50:44.393Z,46.50
2022-08-17T12:51:47.540Z,46.60
2022-08-17T12:52:50.756Z,46.50
2022-08-17T12:53:55.357Z,46.40
2022-08-17T12:55:21.334Z,46.50
2022-08-17T12:56:23.589Z,46.60
2022-08-17T12:57:29.857Z,46.90
2022-08-17T12:58:33.124Z,46.40
2022-08-17T12:59:40.043Z,46.50
2022-08-17T13:00:48.613Z,46.40
2022-08-17T13:01:51.081Z,46.10
2022-08-17T13:03:05.890Z,46.10
2022-08-17T13:04:12.216Z,46.20
2022-08-17T13:05:17.816Z,46.40
2022-08-17T13:06:46.592Z,46.40
2022-08-17T13:07:50.549Z,46.30
2022-08-17T13:08:52.893Z,46.30
2022-08-17T13:09:55.163Z,46.20
2022-08-17T13:11:02.681Z,46.20
2022-08-17T13:12:05.244Z,46.30
2022-08-17T13:13:23.286Z,46.20
2022-08-17T13:14:26.029Z,46.30
2022-08-17T13:15:38.166Z,46.20
2022-08-17T13:16:59.384Z,46.00
2022-08-17T13:18:06.744Z,45.80
2022-08-17T13:19:14.319Z,46.20
2022-08-17T13:20:16.685Z,45.90
2022-08-17T13:21:18.945Z,46.10
2022-08-17T13:22:22.794Z,46.20
2022-08-17T13:23:26.335Z,46.10
2022-08-17T13:24:29.775Z,46.10
2022-08-17T13:25:40.835Z,45.90
2022-08-17T13:26:45.443Z,46.00
2022-08-17T13:27:50.544Z,46.00
2022-08-17T13:28:53.286Z,46.10
2022-08-17T13:29:59.437Z,46.00
2022-08-17T13:31:33.890Z,46.00
2022-08-17T13:32:53.769Z,45.90
2022-08-17T13:34:18.919Z,45.90
2022-08-17T13:35:40.581Z,46.00
2022-08-17T13:36:44.319Z,45.90
2022-08-17T13:37:58.459Z,45.90
2022-08-17T13:39:12.326Z,45.80
2022-08-17T13:40:14.554Z,45.90
2022-08-17T13:41:29.765Z,45.90
2022-08-17T13:42:52.600Z,45.90
2022-08-17T13:43:56.072Z,45.80
2022-08-17T13:44:59.206Z,45.90
2022-08-17T13:46:12.378Z,45.80
2022-08-17T13:47:16.649Z,45.80
2022-08-17T13:48:21.254Z,45.80
2022-08-17T13:49:23.643Z,45.80
2022-08-17T13:50:26.036Z,45.80
2022-08-17T13:51:51.629Z,45.80
2022-08-17T13:52:58.332Z,45.80
2022-08-17T13:54:02.562Z,45.40
2022-08-17T13:55:21.945Z,45.60
2022-08-17T13:56:31.686Z,45.80
2022-08-17T13:57:44.305Z,45.70
2022-08-17T13:59:12.564Z,45.50
2022-08-17T14:00:31.605Z,45.60
2022-08-17T14:01:39.174Z,45.70
2022-08-17T14:02:41.467Z,45.70
2022-08-17T14:03:44.305Z,45.60
2022-08-17T14:04:47.703Z,45.60
2022-08-17T14:05:54.052Z,45.60
2022-08-17T14:07:01.429Z,45.70
2022-08-17T14:08:06.556Z,45.70
2022-08-17T14:09:09.445Z,45.70
2022-08-17T14:10:17.353Z,45.70
2022-08-17T14:11:20.681Z,45.50
2022-08-17T14:12:27.111Z,45.60
2022-08-17T14:13:29.466Z,45.50
2022-08-17T14:14:31.887Z,45.60
2022-08-17T14:15:56.090Z,45.50
2022-08-17T14:16:58.289Z,45.60
2022-08-17T14:18:00.584Z,46.00
2022-08-17T14:19:02.942Z,45.60
2022-08-17T14:20:06.382Z,45.50
2022-08-17T14:21:08.948Z,45.60
2022-08-17T14:22:14.838Z,45.60
2022-08-17T14:23:17.687Z,45.50
2022-08-17T14:24:24.776Z,45.50
2022-08-17T14:25:28.006Z,45.50
2022-08-17T14:26:30.304Z,45.40
2022-08-17T14:27:34.076Z,45.60
2022-08-17T14:28:56.409Z,45.60
2022-08-17T14:29:59.514Z,45.60
2022-08-17T14:31:01.750Z,45.50
2022-08-17T14:32:10.864Z,45.60
2022-08-17T14:33:14.285Z,45.60
2022-08-17T14:34:16.552Z,46.10
2022-08-17T14:35:21.998Z,45.40
2022-08-17T14:36:24.374Z,45.50
2022-08-17T14:37:28.265Z,46.00
2022-08-17T14:38:30.595Z,45.40
2022-08-17T14:39:32.988Z,45.40
2022-08-17T14:40:36.867Z,45.50
2022-08-17T14:41:39.608Z,45.40
2022-08-17T14:42:42.973Z,45.50
2022-08-17T14:43:46.747Z,45.50
2022-08-17T14:44:49.083Z,45.50
2022-08-17T14:45:51.845Z,45.50
2022-08-17T14:46:54.138Z,46.00
2022-08-17T14:47:56.385Z,45.40
2022-08-17T14:48:59.670Z,45.50
2022-08-17T14:50:02.723Z,45.40
2022-08-17T14:51:05.029Z,45.40
2022-08-17T14:52:07.272Z,45.40
2022-08-17T14:53:10.731Z,45.40
2022-08-17T14:54:33.216Z,45.40
2022-08-17T14:55:39.652Z,45.20
2022-08-17T14:56:42.024Z,45.20